createdAt,value
2022-08-20T00:00:19.607Z,55.27
2022-08-20T00:01:19.604Z,61.39
2022-08-20T00:02:19.606Z,57.85
2022-08-20T00:03:19.588Z,57.69
2022-08-20T00:04:19.595Z,57.04
2022-08-20T00:05:19.568Z,56.88
2022-08-20T00:06:19.553Z,56.40
2022-08-20T00:07:19.556Z,61.71
2022-08-20T00:08:19.546Z,56.07
2022-08-20T00:09:19.570Z,57.69
2022-08-20T00:10:19.540Z,57.04
2022-08-20T00:11:19.538Z,55.27
2022-08-20T00:12:19.525Z,57.20
2022-08-20T00:13:19.509Z,58.01
2022-08-20T00:14:19.502Z,58.49
2022-08-20T00:15:19.529Z,60.10
2022-08-20T00:16:19.491Z,58.01
2022-08-20T00:17:19.493Z,58.17
2022-08-20T00:18:19.483Z,56.40
2022-08-20T00:19:19.471Z,57.69
2022-08-20T00:20:19.471Z,58.01
2022-08-20T00:21:19.510Z,58.65
2022-08-20T00:22:19.440Z,58.49
2022-08-20T00:23:19.445Z,58.01
2022-08-20T00:24:19.438Z,60.91
2022-08-20T00:25:19.426Z,57.69
2022-08-20T00:26:19.422Z,57.20
2022-08-20T00:27:19.440Z,55.43
2022-08-20T00:28:19.400Z,56.56
2022-08-20T00:29:20.160Z,55.59
2022-08-20T00:30:19.389Z,58.97
2022-08-20T00:31:19.391Z,56.24
2022-08-20T00:32:19.377Z,58.49
2022-08-20T00:33:19.381Z,56.07
2022-08-20T00:34:19.358Z,56.07
2022-08-20T00:35:19.390Z,56.07
2022-08-20T00:36:19.337Z,57.20
2022-08-20T00:37:19.340Z,55.91
2022-08-20T00:38:19.332Z,53.66
2022-08-20T00:39:19.323Z,57.36
2022-08-20T00:40:22.408Z,55.59
2022-08-20T00:41:19.325Z,56.07
2022-08-20T00:42:19.297Z,56.40
2022-08-20T00:43:19.301Z,55.59
2022-08-20T00:44:19.338Z,57.20
2022-08-20T00:45:19.279Z,55.59
2022-08-20T00:46:19.272Z,59.94
2022-08-20T00:47:19.269Z,57.52
2022-08-20T00:48:19.257Z,58.81
2022-08-20T00:49:19.246Z,60.10
2022-08-20T00:50:19.253Z,58.97
2022-08-20T00:51:19.228Z,58.49
2022-08-20T00:52:19.223Z,59.14
2022-08-20T00:53:19.222Z,57.52
2022-08-20T00:54:19.235Z,57.36
2022-08-20T00:55:19.212Z,57.20
2022-08-20T00:56:19.199Z,57.20
2022-08-20T00:57:19.192Z,58.17
2022-08-20T00:58:19.177Z,58.81
2022-08-20T00:59:19.176Z,58.01
2022-08-20T01:00:19.203Z,60.75
2022-08-20T01:01:19.186Z,56.07
2022-08-20T01:02:19.185Z,58.33
2022-08-20T01:03:19.151Z,60.42
2022-08-20T01:04:19.135Z,58.33
2022-08-20T01:05:19.130Z,57.69
2022-08-20T01:06:19.148Z,55.27
2022-08-20T01:07:19.124Z,59.30
2022-08-20T01:08:19.100Z,60.10
2022-08-20T01:09:49.644Z,59.94
2022-08-20T01:10:20.101Z,56.72
2022-08-20T01:11:19.091Z,56.56
2022-08-20T01:12:19.101Z,53.17
2022-08-20T01:13:19.078Z,56.88
2022-08-20T01:14:19.071Z,60.26
2022-08-20T01:15:19.084Z,57.20
2022-08-20T01:16:19.056Z,56.07
2022-08-20T01:17:19.056Z,57.85
2022-08-20T01:18:19.041Z,58.49
2022-08-20T01:19:29.394Z,61.71
2022-08-20T01:20:19.030Z,58.49
2022-08-20T01:21:19.015Z,55.75
2022-08-20T01:22:19.031Z,57.36
2022-08-20T01:23:19.001Z,56.07
2022-08-20T01:24:18.993Z,53.33
2022-08-20T01:25:19.007Z,56.88
2022-08-20T01:26:18.996Z,58.33
2022-08-20T01:27:18.973Z,54.46
2022-08-20T01:28:18.984Z,56.07
2022-08-20T01:29:18.976Z,57.52
2022-08-20T01:30:18.944Z,57.69
2022-08-20T01:31:19.315Z,54.14
2022-08-20T01:32:18.937Z,57.69
2022-08-20T01:33:18.937Z,55.43
2022-08-20T01:34:18.947Z,56.07
2022-08-20T01:35:18.916Z,59.14
2022-08-20T01:36:18.902Z,55.91
2022-08-20T01:37:18.914Z,58.81
2022-08-20T01:38:18.889Z,54.62
2022-08-20T01:39:18.896Z,56.40
2022-08-20T01:40:18.880Z,55.75
2022-08-20T01:41:18.886Z,55.91
2022-08-20T01:42:19.881Z,57.36
2022-08-20T01:43:18.864Z,58.17
2022-08-20T01:44:18.838Z,58.65
2022-08-20T01:45:18.842Z,55.75
2022-08-20T01:46:18.821Z,53.50
2022-08-20T01:47:18.831Z,57.85
2022-08-20T01:48:18.889Z,55.43
2022-08-20T01:49:22.821Z,55.91
2022-08-20T01:50:18.801Z,55.91
2022-08-20T01:51:18.820Z,60.91
2022-08-20T01:52:18.787Z,64.45
2022-08-20T01:53:18.781Z,56.40
2022-08-20T01:54:18.788Z,56.72
2022-08-20T01:55:18.762Z,59.46
2022-08-20T01:56:18.752Z,61.55
2022-08-20T01:57:18.746Z,58.49
2022-08-20T01:58:18.769Z,56.88
2022-08-20T01:59:18.736Z,56.24
2022-08-20T02:00:20.171Z,58.49
2022-08-20T02:01:18.762Z,58.01
2022-08-20T02:02:18.717Z,55.75
2022-08-20T02:03:18.708Z,56.72
2022-08-20T02:04:18.724Z,54.62
2022-08-20T02:05:18.690Z,55.59
2022-08-20T02:06:18.692Z,59.30
2022-08-20T02:07:18.717Z,57.52
2022-08-20T02:08:18.683Z,56.72
2022-08-20T02:09:18.665Z,58.65
2022-08-20T02:10:18.673Z,58.17
2022-08-20T02:11:18.647Z,56.56
2022-08-20T02:12:18.644Z,59.30
2022-08-20T02:13:18.628Z,56.56
2022-08-20T02:14:18.629Z,58.01
2022-08-20T02:15:18.627Z,56.72
2022-08-20T02:16:19.641Z,54.62
2022-08-20T02:17:18.609Z,54.79
2022-08-20T02:18:18.603Z,55.27
2022-08-20T02:19:18.584Z,55.27
2022-08-20T02:20:18.581Z,55.91
2022-08-20T02:21:18.574Z,52.37
2022-08-20T02:22:18.587Z,56.07
2022-08-20T02:23:18.586Z,52.37
2022-08-20T02:24:18.556Z,57.20
2022-08-20T02:25:18.549Z,55.91
2022-08-20T02:26:18.546Z,56.07
2022-08-20T02:27:18.532Z,54.95
2022-08-20T02:28:18.545Z,56.56
2022-08-20T02:29:18.536Z,58.49
2022-08-20T02:30:24.795Z,59.14
2022-08-20T02:31:18.508Z,56.24
2022-08-20T02:32:24.210Z,55.11
2022-08-20T02:33:19.503Z,59.46
2022-08-20T02:34:22.882Z,57.04
2022-08-20T02:35:18.481Z,60.10
2022-08-20T02:36:18.492Z,57.85
2022-08-20T02:37:18.470Z,57.20
2022-08-20T02:38:18.467Z,56.07
2022-08-20T02:39:18.444Z,57.52
2022-08-20T02:40:18.492Z,56.07
2022-08-20T02:41:19.435Z,55.59
2022-08-20T02:42:18.414Z,58.33
2022-08-20T02:43:18.433Z,57.04
2022-08-20T02:44:18.404Z,57.20
2022-08-20T02:45:19.028Z,54.79
2022-08-20T02:46:18.415Z,58.81
2022-08-20T02:47:18.386Z,55.75
2022-08-20T02:48:18.389Z,56.88
2022-08-20T02:49:18.400Z,56.40
2022-08-20T02:50:18.366Z,57.04
2022-08-20T02:51:18.386Z,58.65
2022-08-20T02:52:19.359Z,53.50
2022-08-20T02:53:18.350Z,55.91
2022-08-20T02:54:18.340Z,58.97
2022-08-20T02:55:26.901Z,57.36
2022-08-20T02:56:19.328Z,56.24
2022-08-20T02:57:18.322Z,60.10
2022-08-20T02:58:18.323Z,59.78
2022-08-20T02:59:19.589Z,57.20
2022-08-20T03:00:18.297Z,61.71
2022-08-20T03:01:18.361Z,59.30
2022-08-20T03:02:18.294Z,64.45
2022-08-20T03:03:18.287Z,59.14
2022-08-20T03:04:18.268Z,59.94
2022-08-20T03:05:18.267Z,57.04
2022-08-20T03:06:18.275Z,59.46
2022-08-20T03:07:18.240Z,58.33
2022-08-20T03:08:18.263Z,59.46
2022-08-20T03:09:18.238Z,56.72
2022-08-20T03:10:18.237Z,58.65
2022-08-20T03:11:18.220Z,58.65
2022-08-20T03:12:18.211Z,58.01
2022-08-20T03:13:18.221Z,61.23
2022-08-20T03:14:18.188Z,62.68
2022-08-20T03:15:18.185Z,56.56
2022-08-20T03:16:18.174Z,57.69
2022-08-20T03:17:18.189Z,59.46
2022-08-20T03:18:18.186Z,59.30
2022-08-20T03:19:18.173Z,55.75
2022-08-20T03:20:18.145Z,58.33
2022-08-20T03:21:19.143Z,60.59
2022-08-20T03:22:18.134Z,58.17
2022-08-20T03:23:18.122Z,60.10
2022-08-20T03:24:18.128Z,60.42
2022-08-20T03:25:18.112Z,58.33
2022-08-20T03:26:18.107Z,58.01
2022-08-20T03:27:18.097Z,59.46
2022-08-20T03:28:18.114Z,57.20
2022-08-20T03:29:18.083Z,62.20
2022-08-20T03:30:18.073Z,60.26
2022-08-20T03:31:18.068Z,59.46
2022-08-20T03:32:18.080Z,56.24
2022-08-20T03:33:18.053Z,58.33
2022-08-20T03:34:18.042Z,60.10
2022-08-20T03:35:18.031Z,61.39
2022-08-20T03:36:20.018Z,59.30
2022-08-20T03:37:18.022Z,60.59
2022-08-20T03:38:18.037Z,59.14
2022-08-20T03:39:18.010Z,61.23
2022-08-20T03:40:18.033Z,58.17
2022-08-20T03:41:18.001Z,61.23
2022-08-20T03:42:17.984Z,58.01
2022-08-20T03:43:17.972Z,57.85
2022-08-20T03:44:17.998Z,58.01
2022-08-20T03:45:20.500Z,59.94
2022-08-20T03:46:22.276Z,57.04
2022-08-20T03:47:18.946Z,56.72
2022-08-20T03:48:17.942Z,58.33
2022-08-20T03:49:17.933Z,59.30
2022-08-20T03:50:22.890Z,58.65
2022-08-20T03:51:18.969Z,59.14
2022-08-20T03:52:17.916Z,58.01
2022-08-20T03:53:17.908Z,58.17
2022-08-20T03:54:17.915Z,58.81
2022-08-20T03:55:17.908Z,59.78
2022-08-20T03:56:17.887Z,59.78
2022-08-20T03:57:17.910Z,59.46
2022-08-20T03:58:17.867Z,61.55
2022-08-20T03:59:17.865Z,59.46
2022-08-20T04:00:17.849Z,59.94
2022-08-20T04:01:36.898Z,59.62
2022-08-20T04:02:18.857Z,58.01
2022-08-20T04:03:17.826Z,61.07
2022-08-20T04:04:17.814Z,61.39
2022-08-20T04:05:17.812Z,61.71
2022-08-20T04:06:17.802Z,59.62
2022-08-20T04:07:17.799Z,59.62
2022-08-20T04:08:17.823Z,60.10
2022-08-20T04:09:17.786Z,59.46
2022-08-20T04:10:17.779Z,60.75
2022-08-20T04:11:17.764Z,58.49
2022-08-20T04:12:17.762Z,57.52
2022-08-20T04:13:17.751Z,59.78
2022-08-20T04:14:18.544Z,55.43
2022-08-20T04:15:17.764Z,57.69
2022-08-20T04:16:17.736Z,59.94
2022-08-20T04:17:17.726Z,61.23
2022-08-20T04:18:17.730Z,60.59
2022-08-20T04:19:17.702Z,61.07
2022-08-20T04:20:17.699Z,62.04
2022-08-20T04:21:17.717Z,60.91
2022-08-20T04:22:17.685Z,56.56
2022-08-20T04:23:17.681Z,60.10
2022-08-20T04:24:24.548Z,60.42
2022-08-20T04:25:18.683Z,60.91
2022-08-20T04:26:17.711Z,59.14
2022-08-20T04:27:17.651Z,62.52
2022-08-20T04:28:17.645Z,57.69
2022-08-20T04:29:17.632Z,59.94
2022-08-20T04:30:17.621Z,57.52
2022-08-20T04:31:20.061Z,61.07
2022-08-20T04:32:17.905Z,60.91
2022-08-20T04:33:19.126Z,60.26
2022-08-20T04:34:18.618Z,60.59
2022-08-20T04:35:17.618Z,62.84
2022-08-20T04:36:17.686Z,60.91
2022-08-20T04:37:17.599Z,61.07
2022-08-20T04:38:17.571Z,58.01
2022-08-20T04:39:17.559Z,58.65
2022-08-20T04:40:17.554Z,62.84
2022-08-20T04:41:23.011Z,61.07
2022-08-20T04:42:18.559Z,58.81
2022-08-20T04:43:17.555Z,63.16
2022-08-20T04:44:17.538Z,59.94
2022-08-20T04:45:17.550Z,58.17
2022-08-20T04:46:17.519Z,59.62
2022-08-20T04:47:17.522Z,57.85
2022-08-20T04:48:18.494Z,61.23
2022-08-20T04:49:17.511Z,59.78
2022-08-20T04:50:17.483Z,59.30
2022-08-20T04:51:17.976Z,59.30
2022-08-20T04:52:17.470Z,64.45
2022-08-20T04:53:17.462Z,59.46
2022-08-20T04:54:17.459Z,58.49
2022-08-20T04:55:17.479Z,61.39
2022-08-20T04:56:17.443Z,63.81
2022-08-20T04:57:17.430Z,59.30
2022-08-20T04:58:17.426Z,56.56
2022-08-20T04:59:17.439Z,57.85
2022-08-20T05:00:17.409Z,58.17
2022-08-20T05:01:17.477Z,56.72
2022-08-20T05:02:17.399Z,58.97
2022-08-20T05:03:17.390Z,58.17
2022-08-20T05:04:17.408Z,58.17
2022-08-20T05:05:17.373Z,57.52
2022-08-20T05:06:17.377Z,57.85
2022-08-20T05:07:17.360Z,58.33
2022-08-20T05:08:20.008Z,58.65
2022-08-20T05:09:17.386Z,57.20
2022-08-20T05:10:17.335Z,56.40
2022-08-20T05:11:36.109Z,58.17
2022-08-20T05:12:18.339Z,58.01
2022-08-20T05:13:17.317Z,61.07
2022-08-20T05:14:17.310Z,59.30
2022-08-20T05:15:17.343Z,59.62
2022-08-20T05:16:17.297Z,63.00
2022-08-20T05:17:17.274Z,59.94
2022-08-20T05:18:17.275Z,57.36
2022-08-20T05:19:17.286Z,59.14
2022-08-20T05:20:17.259Z,57.52
2022-08-20T05:21:17.256Z,57.52
2022-08-20T05:22:17.263Z,57.20
2022-08-20T05:23:17.235Z,58.33
2022-08-20T05:24:17.243Z,57.04
2022-08-20T05:25:17.232Z,58.01
2022-08-20T05:26:17.215Z,58.49
2022-08-20T05:27:24.658Z,60.26
2022-08-20T05:28:18.215Z,59.14
2022-08-20T05:29:17.233Z,58.01
2022-08-20T05:30:17.186Z,60.10
2022-08-20T05:31:17.181Z,60.91
2022-08-20T05:32:17.177Z,58.65
2022-08-20T05:33:17.169Z,59.62
2022-08-20T05:34:17.158Z,57.20
2022-08-20T05:35:17.173Z,58.33
2022-08-20T05:36:17.143Z,58.97
2022-08-20T05:37:17.147Z,61.71
2022-08-20T05:38:17.128Z,58.17
2022-08-20T05:39:17.121Z,58.65
2022-08-20T05:40:17.171Z,56.72
2022-08-20T05:41:28.741Z,56.88
2022-08-20T05:42:18.120Z,61.71
2022-08-20T05:43:17.092Z,60.91
2022-08-20T05:44:17.076Z,57.69
2022-08-20T05:45:17.071Z,61.07
2022-08-20T05:46:17.061Z,62.04
2022-08-20T05:47:17.061Z,60.26
2022-08-20T05:48:17.073Z,65.90
2022-08-20T05:49:17.043Z,60.59
2022-08-20T05:50:23.129Z,60.59
2022-08-20T05:51:18.036Z,59.62
2022-08-20T05:52:17.025Z,60.10
2022-08-20T05:53:17.016Z,62.52
2022-08-20T05:54:17.033Z,58.01
2022-08-20T05:55:17.011Z,58.33
2022-08-20T05:56:17.031Z,56.40
2022-08-20T05:57:17.030Z,57.36
2022-08-20T05:58:17.048Z,60.10
2022-08-20T05:59:19.904Z,57.36
2022-08-20T06:00:17.989Z,62.04
2022-08-20T06:01:17.000Z,57.69
2022-08-20T06:02:16.952Z,56.07
2022-08-20T06:03:16.944Z,56.24
2022-08-20T06:04:16.962Z,58.97
2022-08-20T06:05:16.929Z,59.62
2022-08-20T06:06:20.705Z,59.94
2022-08-20T06:07:17.935Z,61.07
2022-08-20T06:08:16.907Z,58.01
2022-08-20T06:09:28.598Z,60.10
2022-08-20T06:10:17.901Z,59.46
2022-08-20T06:11:16.883Z,59.78
2022-08-20T06:12:16.879Z,62.68
2022-08-20T06:13:16.900Z,60.26
2022-08-20T06:14:16.872Z,60.75
2022-08-20T06:15:16.858Z,60.59
2022-08-20T06:16:16.854Z,61.39
2022-08-20T06:17:16.840Z,59.62
2022-08-20T06:18:28.408Z,60.42
2022-08-20T06:19:17.833Z,62.36
2022-08-20T06:20:17.825Z,58.65
2022-08-20T06:21:16.834Z,57.85
2022-08-20T06:22:19.059Z,59.94
2022-08-20T06:23:17.801Z,58.17
2022-08-20T06:24:16.786Z,56.07
2022-08-20T06:25:16.804Z,60.59
2022-08-20T06:26:16.782Z,57.85
2022-08-20T06:27:17.774Z,59.62
2022-08-20T06:28:16.760Z,58.65
2022-08-20T06:29:16.751Z,61.07
2022-08-20T06:30:16.747Z,57.69
2022-08-20T06:31:16.762Z,58.97
2022-08-20T06:32:16.730Z,56.56
2022-08-20T06:33:16.721Z,58.17
2022-08-20T06:34:16.730Z,59.94
2022-08-20T06:35:19.854Z,60.26
2022-08-20T06:36:18.652Z,58.49
2022-08-20T06:37:16.714Z,60.59
2022-08-20T06:38:16.704Z,61.07
2022-08-20T06:39:16.682Z,60.42
2022-08-20T06:40:16.714Z,59.14
2022-08-20T06:41:16.670Z,60.91
2022-08-20T06:42:20.778Z,57.85
2022-08-20T06:43:16.654Z,58.17
2022-08-20T06:44:16.649Z,58.65
2022-08-20T06:45:16.642Z,58.65
2022-08-20T06:46:16.628Z,57.52
2022-08-20T06:47:16.625Z,58.49
2022-08-20T06:48:16.640Z,58.81
2022-08-20T06:49:16.606Z,61.07
2022-08-20T06:50:16.604Z,60.91
2022-08-20T06:51:16.590Z,60.42
2022-08-20T06:52:16.587Z,58.97
2022-08-20T06:53:16.586Z,59.46
2022-08-20T06:54:16.599Z,58.97
2022-08-20T06:55:16.564Z,59.78
2022-08-20T06:56:16.567Z,59.30
2022-08-20T06:57:16.548Z,58.97
2022-08-20T06:58:36.566Z,58.97
2022-08-20T06:59:17.588Z,57.20
2022-08-20T07:00:16.526Z,58.81
2022-08-20T07:01:16.615Z,57.69
2022-08-20T07:02:16.525Z,56.88
2022-08-20T07:03:16.501Z,59.62
2022-08-20T07:04:16.493Z,64.29
2022-08-20T07:05:16.511Z,60.59
2022-08-20T07:06:16.481Z,58.01
2022-08-20T07:07:16.475Z,59.46
2022-08-20T07:08:16.468Z,60.10
2022-08-20T07:09:16.458Z,59.30
2022-08-20T07:10:16.488Z,60.42
2022-08-20T07:11:16.451Z,57.04
2022-08-20T07:12:16.439Z,57.20
2022-08-20T07:13:16.432Z,57.36
2022-08-20T07:14:16.426Z,60.10
2022-08-20T07:15:16.413Z,57.69
2022-08-20T07:16:16.432Z,61.07
2022-08-20T07:17:16.420Z,60.75
2022-08-20T07:18:16.387Z,62.36
2022-08-20T07:19:17.388Z,61.39
2022-08-20T07:20:16.396Z,64.13
2022-08-20T07:21:16.366Z,65.10
2022-08-20T07:22:16.364Z,63.16
2022-08-20T07:23:16.369Z,63.16
2022-08-20T07:24:16.344Z,63.81
2022-08-20T07:25:16.333Z,63.81
2022-08-20T07:26:16.336Z,63.16
2022-08-20T07:27:16.325Z,64.29
2022-08-20T07:28:16.337Z,64.13
2022-08-20T07:29:16.321Z,63.65
2022-08-20T07:30:17.306Z,63.81
2022-08-20T07:31:16.317Z,64.78
2022-08-20T07:32:16.280Z,67.19
2022-08-20T07:33:16.281Z,66.87
2022-08-20T07:34:16.277Z,65.90
2022-08-20T07:35:16.269Z,64.94
2022-08-20T07:36:16.257Z,73.64
2022-08-20T07:37:16.274Z,65.10
2022-08-20T07:38:16.257Z,66.39
2022-08-20T07:39:16.743Z,65.42
2022-08-20T07:40:16.299Z,65.74
2022-08-20T07:41:16.224Z,66.23
2022-08-20T07:42:16.225Z,65.90
2022-08-20T07:43:16.236Z,67.51
2022-08-20T07:44:16.198Z,67.03
2022-08-20T07:45:16.769Z,66.71
2022-08-20T07:46:16.187Z,68.48
2022-08-20T07:47:16.174Z,75.89
2022-08-20T07:48:31.210Z,79.12
2022-08-20T07:49:17.198Z,78.79
2022-08-20T07:50:16.160Z,82.02
2022-08-20T07:51:16.149Z,77.02
2022-08-20T07:52:16.147Z,78.47
2022-08-20T07:53:16.127Z,73.32
2022-08-20T07:54:16.136Z,73.32
2022-08-20T07:55:16.184Z,72.35
2022-08-20T07:56:16.112Z,76.22
2022-08-20T07:57:16.101Z,83.95
2022-08-20T07:58:16.109Z,75.57
2022-08-20T07:59:16.082Z,73.48
2022-08-20T08:00:16.084Z,72.67
2022-08-20T08:01:16.131Z,81.05
2022-08-20T08:02:16.065Z,78.15
2022-08-20T08:03:16.088Z,77.50
2022-08-20T08:04:16.050Z,68.64
2022-08-20T08:05:16.060Z,80.08
2022-08-20T08:06:19.656Z,73.48
2022-08-20T08:07:17.021Z,70.90
2022-08-20T08:08:16.008Z,71.38
2022-08-20T08:09:16.037Z,72.83
2022-08-20T08:10:16.004Z,69.61
2022-08-20T08:11:16.006Z,76.70
2022-08-20T08:12:15.996Z,74.93
2022-08-20T08:13:15.982Z,72.67
2022-08-20T08:14:15.974Z,70.58
2022-08-20T08:15:15.985Z,72.67
2022-08-20T08:16:15.964Z,71.06
2022-08-20T08:17:15.949Z,72.99
2022-08-20T08:18:15.945Z,71.87
2022-08-20T08:19:15.934Z,76.22
2022-08-20T08:20:15.949Z,83.63
2022-08-20T08:21:15.948Z,77.67
2022-08-20T08:22:15.917Z,72.19
2022-08-20T08:23:24.977Z,72.67
2022-08-20T08:24:21.097Z,72.67
2022-08-20T08:25:16.890Z,76.86
2022-08-20T08:26:19.085Z,77.02
2022-08-20T08:27:15.897Z,76.38
2022-08-20T08:28:15.879Z,73.64
2022-08-20T08:29:15.863Z,74.77
2022-08-20T08:30:15.871Z,75.25
2022-08-20T08:31:15.847Z,73.80
2022-08-20T08:32:15.842Z,69.45
2022-08-20T08:33:15.852Z,70.58
2022-08-20T08:34:15.825Z,73.80
2022-08-20T08:35:15.836Z,66.39
2022-08-20T08:36:15.815Z,72.51
2022-08-20T08:37:15.802Z,71.54
2022-08-20T08:38:15.804Z,76.22
2022-08-20T08:39:15.827Z,73.96
2022-08-20T08:40:15.876Z,75.73
2022-08-20T08:41:15.777Z,76.38
2022-08-20T08:42:15.779Z,70.90
2022-08-20T08:43:17.279Z,68.64
2022-08-20T08:44:16.756Z,71.06
2022-08-20T08:45:15.747Z,71.54
2022-08-20T08:46:15.746Z,81.69
2022-08-20T08:47:15.733Z,74.93
2022-08-20T08:48:18.536Z,72.35
2022-08-20T08:49:15.728Z,71.38
2022-08-20T08:50:15.726Z,72.67
2022-08-20T08:51:15.701Z,80.24
2022-08-20T08:52:15.707Z,73.80
2022-08-20T08:53:15.683Z,72.67
2022-08-20T08:54:15.703Z,73.64
2022-08-20T08:55:15.667Z,67.68
2022-08-20T08:56:15.670Z,70.25
2022-08-20T08:57:15.677Z,65.90
2022-08-20T08:58:17.097Z,73.80
2022-08-20T08:59:15.656Z,69.45
2022-08-20T09:00:15.643Z,70.58
2022-08-20T09:01:54.722Z,79.60
2022-08-20T09:02:16.677Z,69.61
2022-08-20T09:03:15.600Z,72.35
2022-08-20T09:04:15.607Z,68.48
2022-08-20T09:05:15.582Z,70.74
2022-08-20T09:06:15.584Z,71.38
2022-08-20T09:07:15.577Z,80.08
2022-08-20T09:08:17.227Z,74.93
2022-08-20T09:09:15.559Z,68.48
2022-08-20T09:10:15.585Z,68.32
2022-08-20T09:11:16.560Z,80.57
2022-08-20T09:12:15.573Z,73.32
2022-08-20T09:13:15.536Z,84.11
2022-08-20T09:14:15.530Z,75.41
2022-08-20T09:15:15.546Z,72.03
2022-08-20T09:16:15.545Z,78.79
2022-08-20T09:17:15.517Z,71.70
2022-08-20T09:18:15.501Z,69.61
2022-08-20T09:19:15.495Z,70.25
2022-08-20T09:20:15.550Z,74.44
2022-08-20T09:21:15.483Z,60.10
2022-08-20T09:22:15.475Z,60.26
2022-08-20T09:23:15.459Z,59.14
2022-08-20T09:24:15.465Z,59.94
2022-08-20T09:25:15.448Z,65.74
2022-08-20T09:26:15.468Z,59.78
2022-08-20T09:27:15.431Z,60.42
2022-08-20T09:28:15.429Z,59.46
2022-08-20T09:29:15.450Z,59.46
2022-08-20T09:30:15.427Z,62.68
2022-08-20T09:31:15.408Z,57.85
2022-08-20T09:32:15.430Z,57.36
2022-08-20T09:33:15.399Z,61.23
2022-08-20T09:34:15.390Z,59.94
2022-08-20T09:35:15.366Z,58.97
2022-08-20T09:36:31.719Z,58.17
2022-08-20T09:37:15.359Z,60.10
2022-08-20T09:38:15.390Z,59.94
2022-08-20T09:39:15.365Z,60.59
2022-08-20T09:40:15.411Z,60.75
2022-08-20T09:41:16.334Z,60.10
2022-08-20T09:42:15.329Z,59.30
2022-08-20T09:43:15.328Z,58.33
2022-08-20T09:44:15.307Z,58.65
2022-08-20T09:45:15.317Z,60.75
2022-08-20T09:46:15.295Z,59.14
2022-08-20T09:47:15.335Z,60.26
2022-08-20T09:48:15.285Z,60.10
2022-08-20T09:49:15.306Z,60.75
2022-08-20T09:50:15.340Z,60.42
2022-08-20T09:51:15.283Z,59.46
2022-08-20T09:52:15.265Z,60.42
2022-08-20T09:53:15.277Z,61.07
2022-08-20T09:54:15.236Z,62.36
2022-08-20T09:55:15.239Z,59.94
2022-08-20T09:56:15.228Z,60.10
2022-08-20T09:57:15.244Z,61.23
2022-08-20T09:58:15.227Z,63.65
2022-08-20T09:59:15.217Z,60.26
2022-08-20T10:00:15.237Z,60.91
2022-08-20T10:01:15.260Z,59.94
2022-08-20T10:02:15.199Z,60.75
2022-08-20T10:03:15.173Z,60.42
2022-08-20T10:04:15.204Z,59.62
2022-08-20T10:05:15.156Z,59.78
2022-08-20T10:06:15.149Z,58.65
2022-08-20T10:07:16.009Z,59.46
2022-08-20T10:08:15.147Z,59.62
2022-08-20T10:09:15.136Z,59.30
2022-08-20T10:10:15.155Z,59.14
2022-08-20T10:11:15.109Z,57.52
2022-08-20T10:12:15.108Z,61.23
2022-08-20T10:13:15.392Z,61.71
2022-08-20T10:14:15.096Z,59.46
2022-08-20T10:15:15.084Z,58.65
2022-08-20T10:16:15.113Z,60.59
2022-08-20T10:17:15.093Z,59.14
2022-08-20T10:18:15.062Z,59.78
2022-08-20T10:19:15.058Z,59.46
2022-08-20T10:20:15.052Z,59.30
2022-08-20T10:21:15.058Z,58.81
2022-08-20T10:22:15.041Z,61.07
2022-08-20T10:23:15.064Z,58.81
2022-08-20T10:24:15.029Z,58.17
2022-08-20T10:25:15.012Z,59.30
2022-08-20T10:26:15.042Z,59.46
2022-08-20T10:27:14.995Z,57.36
2022-08-20T10:28:15.019Z,58.65
2022-08-20T10:29:14.999Z,59.62
2022-08-20T10:30:14.977Z,58.65
2022-08-20T10:31:14.994Z,59.94
2022-08-20T10:32:14.963Z,59.30
2022-08-20T10:33:14.954Z,59.78
2022-08-20T10:34:14.956Z,59.62
2022-08-20T10:35:14.944Z,57.36
2022-08-20T10:36:14.933Z,58.65
2022-08-20T10:37:14.951Z,60.26
2022-08-20T10:38:14.927Z,58.81
2022-08-20T10:39:14.930Z,58.01
2022-08-20T10:40:15.032Z,59.14
2022-08-20T10:41:14.904Z,60.42
2022-08-20T10:42:14.900Z,58.65
2022-08-20T10:43:15.433Z,58.65
2022-08-20T10:44:14.901Z,59.62
2022-08-20T10:45:14.870Z,58.81
2022-08-20T10:46:14.871Z,59.78
2022-08-20T10:47:14.851Z,58.65
2022-08-20T10:48:19.475Z,63.81
2022-08-20T10:49:14.865Z,58.65
2022-08-20T10:50:14.954Z,58.17
2022-08-20T10:51:14.826Z,58.65
2022-08-20T10:52:15.421Z,59.30
2022-08-20T10:53:14.820Z,58.65
2022-08-20T10:54:14.826Z,57.52
2022-08-20T10:55:14.824Z,58.33
2022-08-20T10:56:15.764Z,59.62
2022-08-20T10:57:14.786Z,60.75
2022-08-20T10:58:14.803Z,58.49
2022-08-20T10:59:14.783Z,58.81
2022-08-20T11:00:14.783Z,59.78
2022-08-20T11:01:31.342Z,60.26
2022-08-20T11:02:16.531Z,60.26
2022-08-20T11:03:14.748Z,59.62
2022-08-20T11:04:14.754Z,61.23
2022-08-20T11:05:14.742Z,61.71
2022-08-20T11:06:14.725Z,61.07
2022-08-20T11:07:14.749Z,59.62
2022-08-20T11:08:14.715Z,57.36
2022-08-20T11:09:15.711Z,56.56
2022-08-20T11:10:14.826Z,58.33
2022-08-20T11:11:14.696Z,57.69
2022-08-20T11:12:14.690Z,60.26
2022-08-20T11:13:14.700Z,57.52
2022-08-20T11:14:14.667Z,56.72
2022-08-20T11:15:14.685Z,57.36
2022-08-20T11:16:14.673Z,58.97
2022-08-20T11:17:14.696Z,60.26
2022-08-20T11:18:14.657Z,57.69
2022-08-20T11:19:14.633Z,58.33
2022-08-20T11:20:14.655Z,57.20
2022-08-20T11:21:14.646Z,57.04
2022-08-20T11:22:14.634Z,58.33
2022-08-20T11:23:14.675Z,58.97
2022-08-20T11:24:14.608Z,56.72
2022-08-20T11:25:14.626Z,56.88
2022-08-20T11:26:14.587Z,58.33
2022-08-20T11:27:14.599Z,58.33
2022-08-20T11:28:14.584Z,60.91
2022-08-20T11:29:14.567Z,57.36
2022-08-20T11:30:14.561Z,57.52
2022-08-20T11:31:14.600Z,58.65
2022-08-20T11:32:14.537Z,57.20
2022-08-20T11:33:14.532Z,57.04
2022-08-20T11:34:14.526Z,56.24
2022-08-20T11:35:40.963Z,58.65
2022-08-20T11:36:15.537Z,58.01
2022-08-20T11:37:14.503Z,58.65
2022-08-20T11:38:14.507Z,60.10
2022-08-20T11:39:14.521Z,58.81
2022-08-20T11:40:14.523Z,61.87
2022-08-20T11:41:14.501Z,57.69
2022-08-20T11:42:14.467Z,62.20
2022-08-20T11:43:15.896Z,62.20
2022-08-20T11:44:21.682Z,55.75
2022-08-20T11:45:15.503Z,55.27
2022-08-20T11:46:14.506Z,57.52
2022-08-20T11:47:14.461Z,58.49
2022-08-20T11:48:14.437Z,58.01
2022-08-20T11:49:14.425Z,57.52
2022-08-20T11:50:14.450Z,59.14
2022-08-20T11:51:14.412Z,59.14
2022-08-20T11:52:14.402Z,57.20
2022-08-20T11:53:14.936Z,56.72
2022-08-20T11:54:14.510Z,58.17
2022-08-20T11:55:14.384Z,59.14
2022-08-20T11:56:14.378Z,59.14
2022-08-20T11:57:14.372Z,60.10
2022-08-20T11:58:14.440Z,60.10
2022-08-20T11:59:14.348Z,59.30
2022-08-20T12:00:14.366Z,57.04
2022-08-20T12:01:14.373Z,58.97
2022-08-20T12:02:14.380Z,56.88
2022-08-20T12:03:14.371Z,56.56
2022-08-20T12:04:14.324Z,55.91
2022-08-20T12:05:14.321Z,56.56
2022-08-20T12:06:14.313Z,57.04
2022-08-20T12:07:14.319Z,57.85
2022-08-20T12:08:26.772Z,56.24
2022-08-20T12:09:15.304Z,58.65
2022-08-20T12:10:14.308Z,58.01
2022-08-20T12:11:14.286Z,58.65
2022-08-20T12:12:14.286Z,57.69
2022-08-20T12:13:14.252Z,55.91
2022-08-20T12:14:14.281Z,58.01
2022-08-20T12:15:14.245Z,58.01
2022-08-20T12:16:14.268Z,58.49
2022-08-20T12:17:14.235Z,57.52
2022-08-20T12:18:14.246Z,59.62
2022-08-20T12:19:14.227Z,58.97
2022-08-20T12:20:14.217Z,59.78
2022-08-20T12:21:14.275Z,58.81
2022-08-20T12:22:24.333Z,58.33
2022-08-20T12:23:15.206Z,58.65
2022-08-20T12:24:14.192Z,75.41
2022-08-20T12:25:14.186Z,56.56
2022-08-20T12:26:14.167Z,57.20
2022-08-20T12:27:14.160Z,58.65
2022-08-20T12:28:14.182Z,57.20
2022-08-20T12:29:14.150Z,56.72
2022-08-20T12:30:14.146Z,57.52
2022-08-20T12:31:14.147Z,60.26
2022-08-20T12:32:14.172Z,61.87
2022-08-20T12:33:14.118Z,60.26
2022-08-20T12:34:14.102Z,66.39
2022-08-20T12:35:14.113Z,62.20
2022-08-20T12:36:14.095Z,60.42
2022-08-20T12:37:16.048Z,70.74
2022-08-20T12:38:14.082Z,65.10
2022-08-20T12:39:14.095Z,64.61
2022-08-20T12:40:14.190Z,61.71
2022-08-20T12:41:14.090Z,66.71
2022-08-20T12:42:14.053Z,58.97
2022-08-20T12:43:14.073Z,60.91
2022-08-20T12:44:14.043Z,59.78
2022-08-20T12:45:14.033Z,70.58
2022-08-20T12:46:14.023Z,69.29
2022-08-20T12:47:14.040Z,62.52
2022-08-20T12:48:14.007Z,66.71
2022-08-20T12:49:14.029Z,57.85
2022-08-20T12:50:14.001Z,68.00
2022-08-20T12:51:13.993Z,68.80
2022-08-20T12:52:13.994Z,64.94